sensor_id;sensor_type;location;lat;lon;timestamp;temperature;humidity
29007;DHT22;16104;48.642;9.008;2023-07-09T01:03:34;24.70;42.60
29007;DHT22;16104;48.642;9.008;2023-07-09T01:08:32;24.70;42.90
29007;DHT22;16104;48.642;9.008;2023-07-09T01:13:29;24.60;43.00
29007;DHT22;16104;48.642;9.008;2023-07-09T02:04:17;24.10;44.60
29007;DHT22;16104;48.642;9.008;2023-07-09T02:09:13;24.10;44.80
29007;DHT22;16104;48.642;9.008;2023-07-09T02:14:08;24.00;44.60
29007;DHT22;16104;48.642;9.008;2023-07-09T03:04:52;23.50;45.80
29007;DHT22;16104;48.642;9.008;2023-07-09T03:09:48;23.50;45.90
29007;DHT22;16104;48.642;9.008;2023-07-09T03:14:43;23.40;46.20
29007;DHT22;16104;48.642;9.008;2023-07-09T03:19:42;23.40;46.40
29007;DHT22;16104;48.642;9.008;2023-07-09T03:24:37;23.30;46.30
29007;DHT22;16104;48.642;9.008;2023-07-09T03:29:33;23.20;46.40
29007;DHT22;16104;48.642;9.008;2023-07-09T03:34:29;23.20;46.60
29007;DHT22;16104;48.642;9.008;2023-07-09T03:39:24;23.10;46.70
29007;DHT22;16104;48.642;9.008;2023-07-09T03:44:19;23.10;47.00
29007;DHT22;16104;48.642;9.008;2023-07-09T03:49:15;23.00;46.90
29007;DHT22;16104;48.642;9.008;2023-07-09T03:54:10;23.00;47.40
29007;DHT22;16104;48.642;9.008;2023-07-09T03:59:06;22.90;47.60
29007;DHT22;16104;48.642;9.008;2023-07-09T04:04:01;22.90;47.80
29007;DHT22;16104;48.642;9.008;2023-07-09T04:08:58;22.90;47.80
29007;DHT22;16104;48.642;9.008;2023-07-09T04:13:53;22.80;47.90
29007;DHT22;16104;48.642;9.008;2023-07-09T04:18:49;22.80;47.90
29007;DHT22;16104;48.642;9.008;2023-07-09T04:23:44;22.80;48.30
29007;DHT22;16104;48.642;9.008;2023-07-09T04:28:40;22.80;48.60
29007;DHT22;16104;48.642;9.008;2023-07-09T04:33:35;22.80;49.00
29007;DHT22;16104;48.642;9.008;2023-07-09T04:38:31;22.70;48.70
29007;DHT22;16104;48.642;9.008;2023-07-09T04:43:26;22.70;48.90
29007;DHT22;16104;48.642;9.008;2023-07-09T04:48:22;22.70;49.10
29007;DHT22;16104;48.642;9.008;2023-07-09T04:53:17;22.70;49.30
29007;DHT22;16104;48.642;9.008;2023-07-09T04:58:14;22.60;49.40
29007;DHT22;16104;48.642;9.008;2023-07-09T05:03:09;22.70;49.60
29007;DHT22;16104;48.642;9.008;2023-07-09T05:08:05;22.70;49.80
29007;DHT22;16104;48.642;9.008;2023-07-09T05:13:00;22.80;49.80
29007;DHT22;16104;48.642;9.008;2023-07-09T05:17:56;22.80;49.80
29007;DHT22;16104;48.642;9.008;2023-07-09T05:22:51;22.90;50.00
29007;DHT22;16104;48.642;9.008;2023-07-09T05:27:47;23.00;50.30
29007;DHT22;16104;48.642;9.008;2023-07-09T05:32:42;23.10;50.00
29007;DHT22;16104;48.642;9.008;2023-07-09T05:37:38;23.20;50.00
29007;DHT22;16104;48.642;9.008;2023-07-09T05:42:34;23.30;49.80
29007;DHT22;16104;48.642;9.008;2023-07-09T05:47:29;23.40;49.70
29007;DHT22;16104;48.642;9.008;2023-07-09T05:52:25;23.50;49.70
29007;DHT22;16104;48.642;9.008;2023-07-09T05:57:20;23.60;49.80
29007;DHT22;16104;48.642;9.008;2023-07-09T06:02:19;23.80;50.00
29007;DHT22;16104;48.642;9.008;2023-07-09T06:07:15;24.00;50.10
29007;DHT22;16104;48.642;9.008;2023-07-09T06:12:12;24.20;49.90
29007;DHT22;16104;48.642;9.008;2023-07-09T06:17:07;24.50;50.00
29007;DHT22;16104;48.642;9.008;2023-07-09T06:22:06;24.70;49.50
29007;DHT22;16104;48.642;9.008;2023-07-09T06:27:01;24.90;49.50
29007;DHT22;16104;48.642;9.008;2023-07-09T06:31:57;25.20;49.20
29007;DHT22;16104;48.642;9.008;2023-07-09T06:36:52;25.40;49.10
29007;DHT22;16104;48.642;9.008;2023-07-09T06:41:48;25.70;48.70
29007;DHT22;16104;48.642;9.008;2023-07-09T06:46:44;25.90;48.60
29007;DHT22;16104;48.642;9.008;2023-07-09T06:51:41;26.20;48.30
29007;DHT22;16104;48.642;9.008;2023-07-09T06:56:36;26.50;48.10
29007;DHT22;16104;48.642;9.008;2023-07-09T07:01:32;26.70;47.70
29007;DHT22;16104;48.642;9.008;2023-07-09T07:06:27;27.00;47.10
29007;DHT22;16104;48.642;9.008;2023-07-09T07:11:23;27.20;46.40
29007;DHT22;16104;48.642;9.008;2023-07-09T07:16:20;27.50;45.60
29007;DHT22;16104;48.642;9.008;2023-07-09T07:21:16;27.80;45.20
29007;DHT22;16104;48.642;9.008;2023-07-09T07:26:11;28.10;45.50
29007;DHT22;16104;48.642;9.008;2023-07-09T07:31:08;28.40;44.60
29007;DHT22;16104;48.642;9.008;2023-07-09T07:36:05;28.70;44.70
29007;DHT22;16104;48.642;9.008;2023-07-09T07:41:01;29.00;43.50
29007;DHT22;16104;48.642;9.008;2023-07-09T07:45:57;29.30;43.60
29007;DHT22;16104;48.642;9.008;2023-07-09T07:51:01;29.60;42.00
29007;DHT22;16104;48.642;9.008;2023-07-09T07:55:58;29.80;40.80
29007;DHT22;16104;48.642;9.008;2023-07-09T08:00:57;30.10;40.60
29007;DHT22;16104;48.642;9.008;2023-07-09T08:05:53;30.40;39.70
29007;DHT22;16104;48.642;9.008;2023-07-09T08:11:03;30.60;39.60
29007;DHT22;16104;48.642;9.008;2023-07-09T08:16:00;30.90;38.60
29007;DHT22;16104;48.642;9.008;2023-07-09T08:20:55;31.20;38.30
29007;DHT22;16104;48.642;9.008;2023-07-09T08:25:59;31.40;37.50
29007;DHT22;16104;48.642;9.008;2023-07-09T08:30:56;31.60;36.60
29007;DHT22;16104;48.642;9.008;2023-07-09T08:35:53;31.90;36.90
29007;DHT22;16104;48.642;9.008;2023-07-09T08:40:58;32.10;35.80
29007;DHT22;16104;48.642;9.008;2023-07-09T08:46:08;32.40;35.00
29007;DHT22;16104;48.642;9.008;2023-07-09T08:51:17;32.70;35.50
29007;DHT22;16104;48.642;9.008;2023-07-09T08:56:15;32.90;34.40
29007;DHT22;16104;48.642;9.008;2023-07-09T09:01:20;33.20;34.30
29007;DHT22;16104;48.642;9.008;2023-07-09T09:06:35;33.50;34.40
29007;DHT22;16104;48.642;9.008;2023-07-09T09:11:39;33.70;34.10
29007;DHT22;16104;48.642;9.008;2023-07-09T09:16:39;34.00;33.60
29007;DHT22;16104;48.642;9.008;2023-07-09T09:21:36;34.20;32.90
29007;DHT22;16104;48.642;9.008;2023-07-09T09:26:36;34.40;31.80
29007;DHT22;16104;48.642;9.008;2023-07-09T09:31:34;34.60;32.10
29007;DHT22;16104;48.642;9.008;2023-07-09T09:36:29;34.80;32.10
29007;DHT22;16104;48.642;9.008;2023-07-09T09:41:29;35.10;31.30
29007;DHT22;16104;48.642;9.008;2023-07-09T09:46:26;35.30;31.10
29007;DHT22;16104;48.642;9.008;2023-07-09T09:51:23;35.60;30.30
29007;DHT22;16104;48.642;9.008;2023-07-09T09:56:30;35.80;30.20
29007;DHT22;16104;48.642;9.008;2023-07-09T10:01:29;36.10;29.20
29007;DHT22;16104;48.642;9.008;2023-07-09T10:06:42;36.30;28.00
29007;DHT22;16104;48.642;9.008;2023-07-09T10:22:12;36.90;27.30
29007;DHT22;16104;48.642;9.008;2023-07-09T10:27:26;37.10;26.80
29007;DHT22;16104;48.642;9.008;2023-07-09T10:38:00;37.60;27.00
29007;DHT22;16104;48.642;9.008;2023-07-09T10:43:03;37.90;26.50
29007;DHT22;16104;48.642;9.008;2023-07-09T10:48:09;38.10;26.10
29007;DHT22;16104;48.642;9.008;2023-07-09T10:58:42;38.40;27.00
29007;DHT22;16104;48.642;9.008;2023-07-09T11:03:51;38.60;24.80
29007;DHT22;16104;48.642;9.008;2023-07-09T11:08:50;38.80;24.40
29007;DHT22;16104;48.642;9.008;2023-07-09T11:13:51;39.00;25.20
29007;DHT22;16104;48.642;9.008;2023-07-09T11:19:00;39.20;24.70
29007;DHT22;16104;48.642;9.008;2023-07-09T11:24:00;39.50;24.40
29007;DHT22;16104;48.642;9.008;2023-07-09T11:29:09;39.70;24.70
29007;DHT22;16104;48.642;9.008;2023-07-09T11:34:16;40.00;24.80
29007;DHT22;16104;48.642;9.008;2023-07-09T11:39:21;40.20;24.00
29007;DHT22;16104;48.642;9.008;2023-07-09T11:44:30;40.40;23.30
29007;DHT22;16104;48.642;9.008;2023-07-09T11:49:34;40.60;22.70
29007;DHT22;16104;48.642;9.008;2023-07-09T11:54:36;40.80;23.00
29007;DHT22;16104;48.642;9.008;2023-07-09T11:59:38;41.00;24.30
29007;DHT22;16104;48.642;9.008;2023-07-09T12:04:35;41.10;22.70
29007;DHT22;16104;48.642;9.008;2023-07-09T12:09:33;41.20;21.50
29007;DHT22;16104;48.642;9.008;2023-07-09T12:14:33;41.40;21.10
29007;DHT22;16104;48.642;9.008;2023-07-09T12:19:30;41.50;21.60
29007;DHT22;16104;48.642;9.008;2023-07-09T12:24:28;41.70;23.10
29007;DHT22;16104;48.642;9.008;2023-07-09T12:29:25;41.90;20.80
29007;DHT22;16104;48.642;9.008;2023-07-09T12:34:21;42.10;20.40
29007;DHT22;16104;48.642;9.008;2023-07-09T12:39:24;42.30;20.60
29007;DHT22;16104;48.642;9.008;2023-07-09T12:44:22;42.40;20.20
29007;DHT22;16104;48.642;9.008;2023-07-09T12:49:30;42.50;20.40
29007;DHT22;16104;48.642;9.008;2023-07-09T12:54:28;42.70;19.70
29007;DHT22;16104;48.642;9.008;2023-07-09T12:59:38;42.70;20.00
29007;DHT22;16104;48.642;9.008;2023-07-09T13:04:37;42.90;19.50
29007;DHT22;16104;48.642;9.008;2023-07-09T13:09:33;42.90;19.90
29007;DHT22;16104;48.642;9.008;2023-07-09T13:14:32;43.10;19.50
29007;DHT22;16104;48.642;9.008;2023-07-09T13:19:27;43.20;18.90
29007;DHT22;16104;48.642;9.008;2023-07-09T13:24:24;43.30;19.50
29007;DHT22;16104;48.642;9.008;2023-07-09T13:29:20;43.30;19.80
29007;DHT22;16104;48.642;9.008;2023-07-09T13:34:24;43.40;20.30
29007;DHT22;16104;48.642;9.008;2023-07-09T13:39:20;43.60;20.00
29007;DHT22;16104;48.642;9.008;2023-07-09T13:44:19;43.80;20.10
29007;DHT22;16104;48.642;9.008;2023-07-09T13:49:17;44.00;19.50
29007;DHT22;16104;48.642;9.008;2023-07-09T13:54:17;44.10;19.30
29007;DHT22;16104;48.642;9.008;2023-07-09T13:59:19;44.10;19.00
29007;DHT22;16104;48.642;9.008;2023-07-09T14:04:17;44.10;19.00
29007;DHT22;16104;48.642;9.008;2023-07-09T14:09:14;44.10;19.00
29007;DHT22;16104;48.642;9.008;2023-07-09T14:14:18;44.10;18.90
29007;DHT22;16104;48.642;9.008;2023-07-09T14:19:16;44.10;18.30
29007;DHT22;16104;48.642;9.008;2023-07-09T14:29:13;44.30;18.70
29007;DHT22;16104;48.642;9.008;2023-07-09T14:34:20;44.30;18.70
29007;DHT22;16104;48.642;9.008;2023-07-09T14:39:16;44.40;17.60
29007;DHT22;16104;48.642;9.008;2023-07-09T14:44:28;44.40;17.30
29007;DHT22;16104;48.642;9.008;2023-07-09T14:49:25;44.30;16.70
29007;DHT22;16104;48.642;9.008;2023-07-09T14:54:23;44.30;16.90
29007;DHT22;16104;48.642;9.008;2023-07-09T14:59:19;44.20;17.20
29007;DHT22;16104;48.642;9.008;2023-07-09T15:09:18;44.10;17.60
29007;DHT22;16104;48.642;9.008;2023-07-09T15:14:14;43.90;17.90
29007;DHT22;16104;48.642;9.008;2023-07-09T15:19:14;43.60;17.70
29007;DHT22;16104;48.642;9.008;2023-07-09T15:24:20;43.50;17.80
29007;DHT22;16104;48.642;9.008;2023-07-09T15:29:16;43.30;17.80
29007;DHT22;16104;48.642;9.008;2023-07-09T15:34:11;43.00;17.80
29007;DHT22;16104;48.642;9.008;2023-07-09T15:39:10;42.80;17.70
29007;DHT22;16104;48.642;9.008;2023-07-09T15:44:17;42.50;18.10
29007;DHT22;16104;48.642;9.008;2023-07-09T15:49:13;42.20;18.00
29007;DHT22;16104;48.642;9.008;2023-07-09T15:54:15;42.00;18.10
29007;DHT22;16104;48.642;9.008;2023-07-09T15:59:29;41.60;18.10
29007;DHT22;16104;48.642;9.008;2023-07-09T16:04:25;41.40;18.30
29007;DHT22;16104;48.642;9.008;2023-07-09T16:09:22;41.10;18.70
29007;DHT22;16104;48.642;9.008;2023-07-09T16:19:17;40.50;18.50
29007;DHT22;16104;48.642;9.008;2023-07-09T16:24:33;40.30;18.70
29007;DHT22;16104;48.642;9.008;2023-07-09T16:29:31;40.00;19.30
29007;DHT22;16104;48.642;9.008;2023-07-09T16:34:29;39.90;20.20
29007;DHT22;16104;48.642;9.008;2023-07-09T16:39:29;39.60;20.00
29007;DHT22;16104;48.642;9.008;2023-07-09T16:44:25;39.40;20.10
29007;DHT22;16104;48.642;9.008;2023-07-09T16:49:33;39.20;20.70
29007;DHT22;16104;48.642;9.008;2023-07-09T16:54:30;39.00;20.30
29007;DHT22;16104;48.642;9.008;2023-07-09T16:59:26;38.80;20.30
29007;DHT22;16104;48.642;9.008;2023-07-09T17:04:26;38.70;20.70
29007;DHT22;16104;48.642;9.008;2023-07-09T17:09:26;38.50;21.10
29007;DHT22;16104;48.642;9.008;2023-07-09T17:14:21;38.30;21.20
29007;DHT22;16104;48.642;9.008;2023-07-09T17:19:17;38.20;21.80
29007;DHT22;16104;48.642;9.008;2023-07-09T17:24:21;38.10;21.80
29007;DHT22;16104;48.642;9.008;2023-07-09T17:29:17;38.20;21.90
29007;DHT22;16104;48.642;9.008;2023-07-09T17:34:13;38.20;21.60
29007;DHT22;16104;48.642;9.008;2023-07-09T17:39:17;38.20;21.70
29007;DHT22;16104;48.642;9.008;2023-07-09T17:44:18;38.30;21.70
29007;DHT22;16104;48.642;9.008;2023-07-09T17:54:21;38.40;22.10
29007;DHT22;16104;48.642;9.008;2023-07-09T17:59:22;38.40;21.50
29007;DHT22;16104;48.642;9.008;2023-07-09T18:04:20;38.40;21.50
29007;DHT22;16104;48.642;9.008;2023-07-09T18:09:17;38.30;21.60
29007;DHT22;16104;48.642;9.008;2023-07-09T18:14:34;38.20;21.60
29007;DHT22;16104;48.642;9.008;2023-07-09T18:19:32;38.10;21.80
29007;DHT22;16104;48.642;9.008;2023-07-09T18:24:27;38.00;21.80
29007;DHT22;16104;48.642;9.008;2023-07-09T18:29:27;37.90;21.80
29007;DHT22;16104;48.642;9.008;2023-07-09T18:34:24;37.70;22.20
29007;DHT22;16104;48.642;9.008;2023-07-09T18:39:19;37.60;22.50
29007;DHT22;16104;48.642;9.008;2023-07-09T18:44:20;37.50;22.70
29007;DHT22;16104;48.642;9.008;2023-07-09T18:49:16;37.30;23.10
29007;DHT22;16104;48.642;9.008;2023-07-09T18:54:16;37.10;23.10
29007;DHT22;16104;48.642;9.008;2023-07-09T18:59:16;37.00;23.50
29007;DHT22;16104;48.642;9.008;2023-07-09T19:04:24;36.80;23.80
29007;DHT22;16104;48.642;9.008;2023-07-09T19:09:23;36.60;24.50
29007;DHT22;16104;48.642;9.008;2023-07-09T19:14:20;36.30;24.60
29007;DHT22;16104;48.642;9.008;2023-07-09T19:19:18;36.10;24.90
29007;DHT22;16104;48.642;9.008;2023-07-09T19:24:28;35.80;25.10
29007;DHT22;16104;48.642;9.008;2023-07-09T19:29:25;35.50;25.70
29007;DHT22;16104;48.642;9.008;2023-07-09T19:34:25;35.30;25.60
29007;DHT22;16104;48.642;9.008;2023-07-09T19:39:38;35.10;26.40
29007;DHT22;16104;48.642;9.008;2023-07-09T19:44:35;34.80;26.60
29007;DHT22;16104;48.642;9.008;2023-07-09T19:49:31;34.50;26.80
29007;DHT22;16104;48.642;9.008;2023-07-09T19:54:26;34.40;27.30
29007;DHT22;16104;48.642;9.008;2023-07-09T19:59:22;34.10;27.30
29007;DHT22;16104;48.642;9.008;2023-07-09T20:04:17;33.90;27.80
29007;DHT22;16104;48.642;9.008;2023-07-09T20:09:14;33.70;27.90
29007;DHT22;16104;48.642;9.008;2023-07-09T20:14:16;33.40;28.20
29007;DHT22;16104;48.642;9.008;2023-07-09T20:19:13;33.20;29.00
29007;DHT22;16104;48.642;9.008;2023-07-09T20:24:16;32.90;28.90
29007;DHT22;16104;48.642;9.008;2023-07-09T20:29:15;32.70;29.20
29007;DHT22;16104;48.642;9.008;2023-07-09T20:34:20;32.50;29.50
29007;DHT22;16104;48.642;9.008;2023-07-09T20:39:20;32.30;30.00
29007;DHT22;16104;48.642;9.008;2023-07-09T20:44:21;32.10;30.10
29007;DHT22;16104;48.642;9.008;2023-07-09T20:49:19;31.80;30.40
29007;DHT22;16104;48.642;9.008;2023-07-09T20:54:15;31.70;30.50
29007;DHT22;16104;48.642;9.008;2023-07-09T20:59:15;31.50;31.00
29007;DHT22;16104;48.642;9.008;2023-07-09T21:04:16;31.30;31.90
29007;DHT22;16104;48.642;9.008;2023-07-09T21:09:26;31.10;31.50
29007;DHT22;16104;48.642;9.008;2023-07-09T21:14:23;30.90;32.00
29007;DHT22;16104;48.642;9.008;2023-07-09T21:19:23;30.80;32.00
29007;DHT22;16104;48.642;9.008;2023-07-09T21:24:26;30.60;32.50
29007;DHT22;16104;48.642;9.008;2023-07-09T21:29:22;30.50;32.70
29007;DHT22;16104;48.642;9.008;2023-07-09T21:34:21;30.30;32.60
29007;DHT22;16104;48.642;9.008;2023-07-09T21:39:27;30.20;32.90
29007;DHT22;16104;48.642;9.008;2023-07-09T21:44:25;30.00;33.10
29007;DHT22;16104;48.642;9.008;2023-07-09T21:49:27;29.90;33.90
29007;DHT22;16104;48.642;9.008;2023-07-09T21:54:35;29.70;34.00
29007;DHT22;16104;48.642;9.008;2023-07-09T21:59:32;29.60;34.70
29007;DHT22;16104;48.642;9.008;2023-07-09T22:04:31;29.40;34.30
29007;DHT22;16104;48.642;9.008;2023-07-09T22:09:27;29.30;34.70
29007;DHT22;16104;48.642;9.008;2023-07-09T22:14:24;29.10;34.10
29007;DHT22;16104;48.642;9.008;2023-07-09T22:19:21;29.10;34.30
29007;DHT22;16104;48.642;9.008;2023-07-09T22:24:18;28.90;34.50
29007;DHT22;16104;48.642;9.008;2023-07-09T22:29:14;28.80;35.00
29007;DHT22;16104;48.642;9.008;2023-07-09T22:34:22;28.70;34.80
29007;DHT22;16104;48.642;9.008;2023-07-09T22:39:18;28.60;35.80
29007;DHT22;16104;48.642;9.008;2023-07-09T22:44:14;28.50;35.30
29007;DHT22;16104;48.642;9.008;2023-07-09T22:49:14;28.50;35.50
29007;DHT22;16104;48.642;9.008;2023-07-09T22:54:11;28.40;36.10
29007;DHT22;16104;48.642;9.008;2023-07-09T22:59:07;28.30;35.90
29007;DHT22;16104;48.642;9.008;2023-07-09T23:04:03;28.20;35.70
29007;DHT22;16104;48.642;9.008;2023-07-09T23:09:00;28.10;35.90
29007;DHT22;16104;48.642;9.008;2023-07-09T23:13:56;28.10;36.00
29007;DHT22;16104;48.642;9.008;2023-07-09T23:18:52;28.00;36.30
29007;DHT22;16104;48.642;9.008;2023-07-09T23:23:50;27.90;36.30
29007;DHT22;16104;48.642;9.008;2023-07-09T23:28:48;27.80;36.50
29007;DHT22;16104;48.642;9.008;2023-07-09T23:33:44;27.70;36.50
29007;DHT22;16104;48.642;9.008;2023-07-09T23:38:40;27.60;36.30
29007;DHT22;16104;48.642;9.008;2023-07-09T23:43:39;27.60;36.70
29007;DHT22;16104;48.642;9.008;2023-07-09T23:48:35;27.50;36.80
29007;DHT22;16104;48.642;9.008;2023-07-09T23:53:32;27.50;36.70
29007;DHT22;16104;48.642;9.008;2023-07-09T23:58:31;27.40;36.80
